createdAt,value
2023-03-06T00:01:01.238Z,86.83
2023-03-06T00:03:29.797Z,87.47
2023-03-06T00:05:59.732Z,87.81
2023-03-06T00:08:30.608Z,87.71
2023-03-06T00:10:59.745Z,86.62
2023-03-06T00:13:30.917Z,85.81
2023-03-06T00:16:01.924Z,85.37
2023-03-06T00:18:30.430Z,83.76
2023-03-06T00:20:58.802Z,82.83
2023-03-06T00:23:28.561Z,83.21
2023-03-06T00:25:56.841Z,83.34
2023-03-06T00:28:25.211Z,82.07
2023-03-06T00:30:53.547Z,82.60
2023-03-06T00:33:21.845Z,79.70
2023-03-06T00:35:50.328Z,81.32
2023-03-06T00:38:18.706Z,81.48
2023-03-06T00:40:47.089Z,81.30
2023-03-06T00:43:15.678Z,81.00
2023-03-06T00:45:44.054Z,80.85
2023-03-06T00:48:12.439Z,79.68
2023-03-06T00:50:40.751Z,79.28
2023-03-06T00:53:09.186Z,77.48
2023-03-06T00:55:37.520Z,74.97
2023-03-06T00:58:06.042Z,76.47
2023-03-06T01:00:34.559Z,75.62
2023-03-06T01:03:02.870Z,75.73
2023-03-06T01:05:34.252Z,75.45
2023-03-06T01:08:02.996Z,74.83
2023-03-06T01:10:31.522Z,73.95
2023-03-06T01:13:00.220Z,73.27
2023-03-06T01:15:28.548Z,72.48
2023-03-06T01:17:56.928Z,72.89
2023-03-06T01:20:25.396Z,72.48
2023-03-06T01:22:55.500Z,72.73
2023-03-06T01:25:26.237Z,71.58
2023-03-06T01:27:54.584Z,72.59
2023-03-06T01:30:22.963Z,71.87
2023-03-06T01:32:51.316Z,73.05
2023-03-06T01:35:19.765Z,74.10
2023-03-06T01:37:48.151Z,72.60
2023-03-06T01:40:16.466Z,72.01
2023-03-06T01:42:46.413Z,72.31
2023-03-06T01:45:15.072Z,70.85
2023-03-06T01:47:43.388Z,71.20
2023-03-06T01:50:13.705Z,69.91
2023-03-06T01:53:02.112Z,70.09
2023-03-06T01:55:35.957Z,70.49
2023-03-06T01:58:16.496Z,70.20
2023-03-06T02:00:44.833Z,70.14
2023-03-06T02:03:20.900Z,69.42
2023-03-06T02:05:49.585Z,69.64
2023-03-06T02:08:20.631Z,69.08
2023-03-06T02:11:03.392Z,68.62
2023-03-06T02:13:32.707Z,69.78
2023-03-06T02:16:01.161Z,68.46
2023-03-06T02:18:30.661Z,68.33
2023-03-06T02:21:03.487Z,67.48
2023-03-06T02:23:50.355Z,67.60
2023-03-06T02:26:19.999Z,67.45
2023-03-06T02:28:50.405Z,66.27
2023-03-06T02:31:29.337Z,67.19
2023-03-06T02:37:09.852Z,66.99
2023-03-06T02:39:43.998Z,66.45
2023-03-06T02:42:18.586Z,66.81
2023-03-06T02:44:47.227Z,66.34
2023-03-06T02:47:15.612Z,64.13
2023-03-06T02:49:43.893Z,65.03
2023-03-06T02:52:12.638Z,65.91
2023-03-06T02:54:41.003Z,62.63
2023-03-06T02:57:09.679Z,64.06
2023-03-06T02:59:38.003Z,63.93
2023-03-06T03:02:06.509Z,63.23
2023-03-06T03:04:34.997Z,64.15
2023-03-06T03:07:03.527Z,62.92
2023-03-06T03:09:37.639Z,63.30
2023-03-06T03:12:08.492Z,62.29
2023-03-06T03:14:36.807Z,62.82
2023-03-06T03:17:05.212Z,62.21
2023-03-06T03:19:33.839Z,62.33
2023-03-06T03:22:02.280Z,61.41
2023-03-06T03:24:30.693Z,62.16
2023-03-06T03:26:59.207Z,59.81
2023-03-06T03:29:27.620Z,60.77
2023-03-06T03:31:55.897Z,60.19
2023-03-06T03:34:24.341Z,60.97
2023-03-06T03:36:52.646Z,59.38
2023-03-06T03:39:20.981Z,61.14
2023-03-06T03:41:49.305Z,60.68
2023-03-06T03:44:17.678Z,61.24
2023-03-06T03:46:46.074Z,60.01
2023-03-06T03:49:14.438Z,61.51
2023-03-06T03:51:42.766Z,60.53
2023-03-06T03:54:11.347Z,59.41
2023-03-06T03:56:41.617Z,58.17
2023-03-06T03:59:10.700Z,59.06
2023-03-06T04:01:39.805Z,59.02
2023-03-06T04:04:08.350Z,60.37
2023-03-06T04:06:36.665Z,60.38
2023-03-06T04:09:05.535Z,58.75
2023-03-06T04:11:33.878Z,56.57
2023-03-06T04:14:02.312Z,57.66
2023-03-06T04:16:30.675Z,55.19
2023-03-06T04:18:59.067Z,56.52
2023-03-06T04:21:27.469Z,56.17
2023-03-06T04:23:56.030Z,56.65
2023-03-06T04:26:24.341Z,56.01
2023-03-06T04:28:52.765Z,54.71
2023-03-06T04:31:21.114Z,55.67
2023-03-06T04:33:49.638Z,55.76
2023-03-06T04:36:30.113Z,56.91
2023-03-06T04:38:58.838Z,56.51
2023-03-06T04:41:27.303Z,53.62
2023-03-06T04:43:55.708Z,54.97
2023-03-06T04:46:24.059Z,55.59
2023-03-06T04:48:52.415Z,51.90
2023-03-06T04:51:20.770Z,54.43
2023-03-06T04:53:49.109Z,54.02
2023-03-06T04:56:17.458Z,54.53
2023-03-06T04:58:46.083Z,55.05
2023-03-06T05:01:14.598Z,53.78
2023-03-06T05:03:43.004Z,52.89
2023-03-06T05:06:11.384Z,55.04
2023-03-06T05:08:39.975Z,54.31
2023-03-06T05:11:08.390Z,52.55
2023-03-06T05:13:36.733Z,53.86
2023-03-06T05:16:06.949Z,51.51
2023-03-06T05:18:35.865Z,52.99
2023-03-06T05:21:05.847Z,50.71
2023-03-06T05:23:36.277Z,50.96
2023-03-06T05:26:09.363Z,52.17
2023-03-06T05:28:37.880Z,52.68
2023-03-06T05:31:07.191Z,54.26
2023-03-06T05:33:37.161Z,52.67
2023-03-06T05:36:05.848Z,49.86
2023-03-06T05:38:34.184Z,52.41
2023-03-06T05:41:02.482Z,49.82
2023-03-06T05:43:31.026Z,49.29
2023-03-06T05:46:07.694Z,49.54
2023-03-06T05:48:37.240Z,49.72
2023-03-06T05:51:06.450Z,51.78
2023-03-06T05:53:34.997Z,50.38
2023-03-06T05:56:06.940Z,50.75
2023-03-06T05:58:35.470Z,50.02
2023-03-06T06:01:17.497Z,50.99
2023-03-06T06:03:46.405Z,48.28
2023-03-06T06:06:16.396Z,48.32
2023-03-06T06:08:44.988Z,47.22
2023-03-06T06:11:14.954Z,47.85
2023-03-06T06:13:43.433Z,47.32
2023-03-06T06:16:13.840Z,49.96
2023-03-06T06:18:42.359Z,48.29
2023-03-06T06:21:12.901Z,49.39
2023-03-06T06:23:41.539Z,50.19
2023-03-06T06:26:11.066Z,46.63
2023-03-06T06:28:39.455Z,47.79
2023-03-06T06:31:14.467Z,48.41
2023-03-06T06:33:43.237Z,49.95
2023-03-06T06:36:21.778Z,49.14
2023-03-06T06:38:50.758Z,46.91
2023-03-06T06:41:42.329Z,46.08
2023-03-06T06:44:09.337Z,48.44
2023-03-06T06:49:26.918Z,45.83
2023-03-06T06:51:55.231Z,46.50
2023-03-06T06:54:23.659Z,47.42
2023-03-06T06:56:52.169Z,44.90
2023-03-06T06:59:20.875Z,45.83
2023-03-06T07:01:49.255Z,47.51
2023-03-06T07:04:18.971Z,45.97
2023-03-06T07:06:47.337Z,45.79
2023-03-06T07:09:16.099Z,44.72
2023-03-06T07:11:44.583Z,44.76
2023-03-06T07:14:12.866Z,44.95
2023-03-06T07:16:41.189Z,46.52
2023-03-06T07:19:09.563Z,46.37
2023-03-06T07:21:37.908Z,44.69
2023-03-06T07:24:06.443Z,44.76
2023-03-06T07:26:35.000Z,46.05
2023-03-06T07:29:04.965Z,45.33
2023-03-06T07:31:33.650Z,46.13
2023-03-06T07:34:04.498Z,44.29
2023-03-06T07:36:35.114Z,44.69
2023-03-06T07:39:03.443Z,43.86
2023-03-06T07:41:31.714Z,43.86
2023-03-06T07:44:00.116Z,45.00
2023-03-06T07:46:28.521Z,45.56
2023-03-06T07:48:57.083Z,43.77
2023-03-06T07:51:25.485Z,43.27
2023-03-06T07:53:53.845Z,44.20
2023-03-06T07:56:22.187Z,43.21
2023-03-06T07:58:50.530Z,43.60
2023-03-06T08:01:22.217Z,41.96
2023-03-06T08:03:51.290Z,44.07
2023-03-06T08:06:24.011Z,43.50
2023-03-06T08:08:53.754Z,42.77
2023-03-06T08:11:24.369Z,43.35
2023-03-06T08:13:53.840Z,43.61
2023-03-06T08:16:23.546Z,41.95
2023-03-06T08:18:52.466Z,41.48
2023-03-06T08:21:23.299Z,43.13
2023-03-06T08:23:52.538Z,42.94
2023-03-06T08:26:24.190Z,42.82
2023-03-06T08:28:54.744Z,44.74
2023-03-06T08:31:23.003Z,43.76
2023-03-06T08:33:51.619Z,42.42
2023-03-06T08:36:19.979Z,41.04
2023-03-06T08:38:48.366Z,42.64
2023-03-06T08:41:16.812Z,43.05
2023-03-06T08:43:45.216Z,43.16
2023-03-06T08:46:14.339Z,43.55
2023-03-06T08:48:43.103Z,41.79
2023-03-06T08:51:12.049Z,42.58
2023-03-06T08:53:43.501Z,44.74
2023-03-06T08:56:33.953Z,45.27
2023-03-06T08:59:04.787Z,43.58
2023-03-06T09:01:35.974Z,44.34
2023-03-06T09:04:07.648Z,41.90
2023-03-06T09:06:39.872Z,44.14
2023-03-06T09:09:09.632Z,44.43
2023-03-06T09:11:38.557Z,43.87
2023-03-06T09:14:07.259Z,45.00
2023-03-06T09:16:35.819Z,43.18
2023-03-06T09:19:04.287Z,43.90
2023-03-06T09:21:32.643Z,43.74
2023-03-06T09:24:01.164Z,43.18
2023-03-06T09:26:43.207Z,42.42
2023-03-06T09:29:13.802Z,44.21
2023-03-06T09:31:42.126Z,43.78
2023-03-06T09:34:10.429Z,42.08
2023-03-06T09:36:53.703Z,42.01
2023-03-06T09:39:25.046Z,42.73
2023-03-06T09:41:54.434Z,43.19
2023-03-06T09:44:27.084Z,43.85
2023-03-06T09:47:07.992Z,45.45
2023-03-06T09:49:48.165Z,46.68
2023-03-06T09:52:29.826Z,44.10
2023-03-06T09:55:12.830Z,43.43
2023-03-06T09:57:56.273Z,43.41
2023-03-06T10:00:35.354Z,43.99
2023-03-06T10:03:37.763Z,44.90
2023-03-06T10:06:34.581Z,43.85
2023-03-06T10:09:20.752Z,43.80
2023-03-06T10:11:57.065Z,46.28
2023-03-06T10:14:48.785Z,46.88
2023-03-06T10:17:20.627Z,47.41
2023-03-06T10:19:50.324Z,47.69
2023-03-06T10:22:28.381Z,47.53
2023-03-06T10:25:15.099Z,47.75
2023-03-06T10:28:04.699Z,47.08
2023-03-06T10:30:53.602Z,47.93
2023-03-06T10:33:45.216Z,48.40
2023-03-06T10:36:17.443Z,48.45
2023-03-06T10:38:49.392Z,48.90
2023-03-06T10:41:29.793Z,49.64
2023-03-06T10:44:01.142Z,49.30
2023-03-06T10:46:32.907Z,49.04
2023-03-06T10:49:27.148Z,49.48
2023-03-06T10:52:10.755Z,50.08
2023-03-06T10:54:42.521Z,51.28
2023-03-06T10:57:23.176Z,51.29
2023-03-06T10:59:54.548Z,51.12
2023-03-06T11:02:26.062Z,51.65
2023-03-06T11:04:56.052Z,52.14
2023-03-06T11:07:27.353Z,52.07
2023-03-06T11:09:59.611Z,53.04
2023-03-06T11:12:35.172Z,53.58
2023-03-06T11:15:23.285Z,53.39
2023-03-06T11:18:09.947Z,54.03
2023-03-06T11:20:54.249Z,54.08
2023-03-06T11:23:43.474Z,54.41
2023-03-06T11:26:17.512Z,54.39
2023-03-06T11:29:02.554Z,55.59
2023-03-06T11:31:36.234Z,56.88
2023-03-06T11:34:16.281Z,57.96
2023-03-06T11:37:36.773Z,58.89
2023-03-06T11:40:16.105Z,59.44
2023-03-06T11:42:54.135Z,58.67
2023-03-06T11:45:47.849Z,59.30
2023-03-06T11:48:16.396Z,60.82
2023-03-06T11:50:53.987Z,61.55
2023-03-06T11:53:34.484Z,63.25
2023-03-06T11:56:19.754Z,63.23
2023-03-06T11:58:59.889Z,63.89
2023-03-06T12:01:33.693Z,64.83
2023-03-06T12:04:09.451Z,64.43
2023-03-06T12:06:58.616Z,64.73
2023-03-06T12:09:26.945Z,63.56
2023-03-06T12:12:07.153Z,63.16
2023-03-06T12:15:12.651Z,65.59
2023-03-06T12:18:17.178Z,64.96
2023-03-06T12:21:06.542Z,65.05
2023-03-06T12:23:37.864Z,65.81
2023-03-06T12:26:40.890Z,64.70
2023-03-06T12:29:24.505Z,64.87
2023-03-06T12:31:52.837Z,64.62
2023-03-06T12:34:52.198Z,66.84
2023-03-06T12:37:30.306Z,67.83
2023-03-06T12:40:13.921Z,67.97
2023-03-06T12:42:52.883Z,67.95
2023-03-06T12:45:41.074Z,66.95
2023-03-06T12:48:27.334Z,67.31
2023-03-06T12:50:56.452Z,67.73
2023-03-06T12:53:40.414Z,69.87
2023-03-06T12:56:09.966Z,69.94
2023-03-06T12:58:51.552Z,69.60
2023-03-06T13:01:42.492Z,69.61
2023-03-06T13:04:25.723Z,71.42
2023-03-06T13:06:55.142Z,73.05
2023-03-06T13:09:38.344Z,73.56
2023-03-06T13:12:17.414Z,73.13
2023-03-06T13:14:54.225Z,72.80
2023-03-06T13:17:29.291Z,71.15
2023-03-06T13:22:46.430Z,73.73
2023-03-06T13:25:20.862Z,73.46
2023-03-06T13:28:22.978Z,72.43
2023-03-06T13:30:52.987Z,71.19
2023-03-06T13:33:39.643Z,70.33
2023-03-06T13:36:30.564Z,69.46
2023-03-06T13:39:11.345Z,68.89
2023-03-06T13:41:44.304Z,68.90
2023-03-06T13:44:27.860Z,69.17
2023-03-06T13:47:02.671Z,69.62
2023-03-06T13:49:31.889Z,70.39
2023-03-06T13:52:20.360Z,70.91
2023-03-06T13:55:00.885Z,71.38
2023-03-06T13:57:46.351Z,71.64
2023-03-06T14:00:42.959Z,72.28
2023-03-06T14:03:38.232Z,72.15
2023-03-06T14:06:52.431Z,73.62
2023-03-06T14:09:29.249Z,72.37
2023-03-06T14:12:16.753Z,71.82
2023-03-06T14:14:52.035Z,71.53
2023-03-06T14:17:31.123Z,72.53
2023-03-06T14:20:15.077Z,72.36
2023-03-06T14:22:43.650Z,72.45
2023-03-06T14:25:29.556Z,71.92
2023-03-06T14:28:05.667Z,71.43
2023-03-06T14:30:51.216Z,71.77
2023-03-06T14:33:36.388Z,72.92
2023-03-06T14:36:09.022Z,74.25
2023-03-06T14:38:44.136Z,74.97
2023-03-06T14:41:14.051Z,74.45
2023-03-06T14:43:42.530Z,74.80
2023-03-06T14:46:21.657Z,75.39
2023-03-06T14:48:50.664Z,75.62
2023-03-06T14:51:26.288Z,74.91
2023-03-06T14:54:01.885Z,74.95
2023-03-06T14:56:32.534Z,75.28
2023-03-06T14:59:05.311Z,75.41
2023-03-06T15:01:56.105Z,75.96
2023-03-06T15:04:45.523Z,76.87
2023-03-06T15:07:19.033Z,77.30
2023-03-06T15:09:53.733Z,77.56
2023-03-06T15:12:22.200Z,77.41
2023-03-06T15:14:58.893Z,77.72
2023-03-06T15:17:30.561Z,76.62
2023-03-06T15:20:00.936Z,76.75
2023-03-06T15:22:40.281Z,79.64
2023-03-06T15:25:20.554Z,73.80
2023-03-06T15:28:14.739Z,75.31
2023-03-06T15:30:43.033Z,76.12
2023-03-06T15:33:25.242Z,76.67
2023-03-06T15:36:02.651Z,76.50
2023-03-06T15:38:42.812Z,77.37
2023-03-06T15:41:38.572Z,77.41
2023-03-06T15:44:14.072Z,77.11
2023-03-06T15:46:43.091Z,76.04
2023-03-06T15:49:17.863Z,76.63
2023-03-06T15:51:46.205Z,77.60
2023-03-06T15:54:14.582Z,76.75
2023-03-06T15:56:45.537Z,76.74
2023-03-06T15:59:34.112Z,76.06
2023-03-06T16:02:20.807Z,76.64
2023-03-06T16:04:50.326Z,77.50
2023-03-06T16:07:19.383Z,78.33
2023-03-06T16:09:48.362Z,78.86
2023-03-06T16:12:22.550Z,78.83
2023-03-06T16:14:50.954Z,78.94
2023-03-06T16:17:19.285Z,77.49
2023-03-06T16:19:47.617Z,79.67
2023-03-06T16:22:15.967Z,79.99
2023-03-06T16:27:30.988Z,80.77
2023-03-06T16:32:47.453Z,81.00
2023-03-06T16:38:00.765Z,81.03
2023-03-06T16:40:56.135Z,81.40
2023-03-06T16:43:24.459Z,81.32
2023-03-06T16:45:53.064Z,81.94
2023-03-06T16:48:29.049Z,81.41
2023-03-06T16:50:59.639Z,81.91
2023-03-06T16:53:28.221Z,81.57
2023-03-06T16:55:56.607Z,81.61
2023-03-06T16:58:25.022Z,81.32
2023-03-06T17:00:53.424Z,81.03
2023-03-06T17:03:23.977Z,80.62
2023-03-06T17:05:53.621Z,79.82
2023-03-06T17:08:21.946Z,80.22
2023-03-06T17:10:53.779Z,80.23
2023-03-06T17:13:22.123Z,80.15
2023-03-06T17:16:06.685Z,81.10
2023-03-06T17:18:35.160Z,81.28
2023-03-06T17:21:03.815Z,81.66
2023-03-06T17:23:32.460Z,82.50
2023-03-06T17:26:19.784Z,82.71
2023-03-06T17:28:48.858Z,82.18
2023-03-06T17:31:23.371Z,81.69
2023-03-06T17:34:01.617Z,81.34
2023-03-06T17:36:31.954Z,81.60
2023-03-06T17:39:09.123Z,81.96
2023-03-06T17:41:37.527Z,81.65
2023-03-06T17:44:06.307Z,81.08
2023-03-06T17:46:35.609Z,81.35
2023-03-06T17:49:04.553Z,81.86
2023-03-06T17:51:32.839Z,82.20
2023-03-06T17:54:01.305Z,81.77
2023-03-06T17:56:32.066Z,81.49
2023-03-06T17:59:01.389Z,82.37
2023-03-06T18:01:35.450Z,82.41
2023-03-06T18:04:04.816Z,82.77
2023-03-06T18:06:34.804Z,83.14
2023-03-06T18:09:05.902Z,83.14
2023-03-06T18:11:34.800Z,82.79
2023-03-06T18:14:08.263Z,82.42
2023-03-06T18:16:37.173Z,82.30
2023-03-06T18:19:09.010Z,82.14
2023-03-06T18:21:37.548Z,82.17
2023-03-06T18:24:07.009Z,77.58
2023-03-06T18:26:35.383Z,81.46
2023-03-06T18:29:05.450Z,83.31
2023-03-06T18:31:43.924Z,84.73
2023-03-06T18:34:15.146Z,83.56
2023-03-06T18:36:44.589Z,85.58
2023-03-06T18:39:14.901Z,86.40
2023-03-06T18:41:43.378Z,86.38
2023-03-06T18:44:15.698Z,84.71
2023-03-06T18:46:47.256Z,83.07
2023-03-06T18:49:20.432Z,85.13
2023-03-06T18:51:51.396Z,85.84
2023-03-06T18:54:22.528Z,85.47
2023-03-06T18:56:51.232Z,85.51
2023-03-06T18:59:29.429Z,85.04
2023-03-06T19:01:58.714Z,85.66
2023-03-06T19:04:27.592Z,85.51
2023-03-06T19:06:56.083Z,84.77
2023-03-06T19:09:24.558Z,85.04
2023-03-06T19:11:54.845Z,84.79
2023-03-06T19:14:23.284Z,84.74
2023-03-06T19:16:51.828Z,84.56
2023-03-06T19:19:20.147Z,84.55
2023-03-06T19:21:48.482Z,85.45
2023-03-06T19:24:16.809Z,85.10
2023-03-06T19:26:45.120Z,85.40
2023-03-06T19:29:13.457Z,85.24
2023-03-06T19:31:42.644Z,85.24
2023-03-06T19:34:11.246Z,85.34
2023-03-06T19:36:41.584Z,85.56
2023-03-06T19:39:10.493Z,85.80
2023-03-06T19:41:38.832Z,85.30
2023-03-06T19:44:07.325Z,84.82
2023-03-06T19:46:37.093Z,84.78
2023-03-06T19:49:13.065Z,85.32
2023-03-06T19:51:41.554Z,84.92
2023-03-06T19:54:13.074Z,85.10
2023-03-06T19:56:41.655Z,84.66
2023-03-06T19:59:10.069Z,84.98
2023-03-06T20:01:39.533Z,85.63
2023-03-06T20:04:08.178Z,84.95
2023-03-06T20:06:39.811Z,85.01
2023-03-06T20:09:10.075Z,84.59
2023-03-06T20:11:39.729Z,84.53
2023-03-06T20:14:09.755Z,84.50
2023-03-06T20:16:38.246Z,85.13
2023-03-06T20:19:07.816Z,85.22
2023-03-06T20:21:38.537Z,85.33
2023-03-06T20:24:08.639Z,85.98
2023-03-06T20:26:39.042Z,85.38
2023-03-06T20:29:07.436Z,85.92
2023-03-06T20:31:35.814Z,86.21
2023-03-06T20:34:05.406Z,85.55
2023-03-06T20:36:37.060Z,85.25
2023-03-06T20:39:08.497Z,85.00
2023-03-06T20:41:37.380Z,86.00
2023-03-06T20:44:08.336Z,86.07
2023-03-06T20:46:37.288Z,86.31
2023-03-06T20:49:06.522Z,86.09
2023-03-06T20:51:39.940Z,85.02
2023-03-06T20:54:10.041Z,85.13
2023-03-06T20:56:42.321Z,85.43
2023-03-06T20:59:13.339Z,85.72
2023-03-06T21:01:44.565Z,84.81
2023-03-06T21:04:15.060Z,85.00
2023-03-06T21:06:47.297Z,85.47
2023-03-06T21:09:17.902Z,85.79
2023-03-06T21:11:47.231Z,85.72
2023-03-06T21:14:16.298Z,85.40
2023-03-06T21:16:44.669Z,84.91
2023-03-06T21:19:13.682Z,85.00
2023-03-06T21:21:42.350Z,84.59
2023-03-06T21:24:10.693Z,83.56
2023-03-06T21:26:39.064Z,83.88
2023-03-06T21:29:07.389Z,83.80
2023-03-06T21:31:35.797Z,83.82
2023-03-06T21:34:05.199Z,84.74
2023-03-06T21:36:35.163Z,84.44
2023-03-06T21:39:07.076Z,83.70
2023-03-06T21:41:35.848Z,83.68
2023-03-06T21:44:06.588Z,84.35
2023-03-06T21:46:35.359Z,84.33
2023-03-06T21:49:05.671Z,84.62
2023-03-06T21:51:34.081Z,84.88
2023-03-06T21:54:03.814Z,84.17
2023-03-06T21:56:34.236Z,84.61
2023-03-06T21:59:02.647Z,84.09
2023-03-06T22:01:31.655Z,84.53
2023-03-06T22:04:00.922Z,84.32
2023-03-06T22:06:30.909Z,84.81
2023-03-06T22:09:01.228Z,84.75
2023-03-06T22:11:32.186Z,84.36
2023-03-06T22:14:00.530Z,84.42
2023-03-06T22:16:29.015Z,84.42
2023-03-06T22:18:57.617Z,85.36
2023-03-06T22:21:26.827Z,84.18
2023-03-06T22:23:59.610Z,83.60
2023-03-06T22:26:29.487Z,83.45
2023-03-06T22:28:58.408Z,83.87
2023-03-06T22:31:29.721Z,83.46
2023-03-06T22:34:00.891Z,84.39
2023-03-06T22:36:34.055Z,84.56
2023-03-06T22:39:05.115Z,84.48
2023-03-06T22:41:33.447Z,84.86
2023-03-06T22:44:03.172Z,83.53
2023-03-06T22:46:32.362Z,83.15
2023-03-06T22:49:01.597Z,83.04
2023-03-06T22:51:30.648Z,83.31
2023-03-06T22:53:59.307Z,83.36
2023-03-06T22:56:27.687Z,83.21
2023-03-06T22:58:56.051Z,82.75
2023-03-06T23:01:27.742Z,83.07
2023-03-06T23:03:58.912Z,83.24
2023-03-06T23:06:35.621Z,83.44
2023-03-06T23:09:08.342Z,83.31
2023-03-06T23:11:36.631Z,82.27
2023-03-06T23:14:06.736Z,83.95
2023-03-06T23:16:35.265Z,83.94
2023-03-06T23:19:05.338Z,83.48
2023-03-06T23:21:35.141Z,84.09
2023-03-06T23:24:03.775Z,83.78
2023-03-06T23:26:35.036Z,83.54
2023-03-06T23:29:05.287Z,84.12
2023-03-06T23:31:33.610Z,83.70
2023-03-06T23:34:03.670Z,84.15
2023-03-06T23:36:32.518Z,84.12
2023-03-06T23:39:00.879Z,83.00
2023-03-06T23:41:29.521Z,83.69
2023-03-06T23:43:57.805Z,83.72
2023-03-06T23:46:26.191Z,83.78
2023-03-06T23:48:54.693Z,82.42
2023-03-06T23:51:24.111Z,83.28
2023-03-06T23:53:59.102Z,84.67
2023-03-06T23:56:29.452Z,84.44
2023-03-06T23:58:57.810Z,84.89
